createdAt,value
2019-01-29T00:01:19.068Z,1.70
2019-01-29T00:03:46.955Z,1.80
2019-01-29T00:06:14.845Z,1.80
2019-01-29T00:08:43.084Z,1.70
2019-01-29T00:11:10.957Z,1.60
2019-01-29T00:13:38.840Z,1.50
2019-01-29T00:16:06.894Z,1.40
2019-01-29T00:18:35.028Z,1.40
2019-01-29T00:21:03.161Z,1.50
2019-01-29T00:23:31.039Z,1.50
2019-01-29T00:25:58.906Z,1.50
2019-01-29T00:28:27.110Z,1.60
2019-01-29T00:30:55.078Z,1.60
2019-01-29T00:33:22.940Z,1.60
2019-01-29T00:35:50.813Z,1.60
2019-01-29T00:38:18.708Z,1.60
2019-01-29T00:40:46.595Z,1.60
2019-01-29T00:43:14.484Z,1.50
2019-01-29T00:45:42.597Z,1.40
2019-01-29T00:48:10.564Z,1.30
2019-01-29T00:50:38.464Z,1.20
2019-01-29T00:53:06.342Z,1.20
2019-01-29T00:55:34.753Z,1.10
2019-01-29T00:58:02.870Z,1.00
2019-01-29T01:00:31.241Z,1.00
2019-01-29T01:02:59.368Z,0.90
2019-01-29T01:05:27.448Z,0.90
2019-01-29T01:07:55.661Z,0.90
2019-01-29T01:10:23.624Z,0.80
2019-01-29T01:12:51.512Z,0.70
2019-01-29T01:15:19.598Z,0.70
2019-01-29T01:17:47.544Z,0.70
2019-01-29T01:20:16.477Z,0.60
2019-01-29T01:22:50.656Z,0.60
2019-01-29T01:25:14.971Z,0.50
2019-01-29T01:27:42.840Z,0.40
2019-01-29T01:30:11.948Z,0.30
2019-01-29T01:32:39.886Z,0.40
2019-01-29T01:35:07.960Z,0.60
2019-01-29T01:37:35.877Z,0.60
2019-01-29T01:40:05.572Z,0.60
2019-01-29T01:42:33.512Z,0.60
2019-01-29T01:45:01.428Z,0.60
2019-01-29T01:47:29.292Z,0.70
2019-01-29T01:49:57.433Z,0.80
2019-01-29T01:52:25.336Z,1.00
2019-01-29T01:54:53.196Z,1.00
2019-01-29T01:57:21.104Z,1.10
2019-01-29T01:59:49.004Z,1.10
2019-01-29T02:02:16.907Z,1.10
2019-01-29T02:04:45.014Z,1.10
2019-01-29T02:07:12.888Z,1.10
2019-01-29T02:09:40.814Z,1.10
2019-01-29T02:12:08.752Z,1.10
2019-01-29T02:14:36.624Z,1.20
2019-01-29T02:17:04.859Z,1.20
2019-01-29T02:19:32.744Z,1.20
2019-01-29T02:22:00.632Z,1.20
2019-01-29T02:24:29.278Z,1.30
2019-01-29T02:26:57.179Z,1.30
2019-01-29T02:29:25.169Z,1.30
2019-01-29T02:31:53.107Z,1.30
2019-01-29T02:34:21.229Z,1.30
2019-01-29T02:36:49.220Z,1.30
2019-01-29T02:39:17.390Z,1.20
2019-01-29T02:41:45.332Z,1.20
2019-01-29T02:44:13.307Z,1.10
2019-01-29T02:46:41.464Z,1.10
2019-01-29T02:49:09.368Z,0.90
2019-01-29T02:51:37.503Z,0.80
2019-01-29T02:54:05.476Z,0.80
2019-01-29T02:56:33.351Z,0.70
2019-01-29T02:59:01.331Z,0.70
2019-01-29T03:01:29.288Z,0.60
2019-01-29T03:03:57.360Z,0.60
2019-01-29T03:06:25.266Z,0.50
2019-01-29T03:08:53.148Z,0.50
2019-01-29T03:11:21.053Z,0.60
2019-01-29T03:13:48.970Z,0.60
2019-01-29T03:16:16.916Z,0.60
2019-01-29T03:18:44.820Z,0.70
2019-01-29T03:21:12.733Z,0.80
2019-01-29T03:23:40.710Z,0.80
2019-01-29T03:26:09.055Z,0.90
2019-01-29T03:28:36.953Z,1.00
2019-01-29T03:31:05.166Z,1.10
2019-01-29T03:33:33.295Z,1.20
2019-01-29T03:36:01.420Z,1.20
2019-01-29T03:38:29.320Z,1.20
2019-01-29T03:40:57.244Z,1.20
2019-01-29T03:43:25.140Z,1.20
2019-01-29T03:45:53.122Z,1.10
2019-01-29T03:48:21.260Z,1.00
2019-01-29T03:50:49.244Z,1.00
2019-01-29T03:53:17.145Z,1.00
2019-01-29T03:55:45.465Z,0.90
2019-01-29T03:58:13.365Z,0.80
2019-01-29T04:00:41.300Z,0.80
2019-01-29T04:03:09.716Z,0.80
2019-01-29T04:05:37.657Z,0.70
2019-01-29T04:08:05.901Z,0.70
2019-01-29T04:10:33.789Z,0.70
2019-01-29T04:13:01.738Z,0.80
2019-01-29T04:15:29.798Z,0.80
2019-01-29T04:17:58.790Z,0.90
2019-01-29T04:20:26.879Z,0.90
2019-01-29T04:22:54.845Z,1.00
2019-01-29T04:25:22.812Z,1.00
2019-01-29T04:27:50.744Z,1.00
2019-01-29T04:30:19.558Z,1.00
2019-01-29T04:32:47.438Z,1.10
2019-01-29T04:35:15.472Z,1.10
2019-01-29T04:37:43.726Z,1.00
2019-01-29T04:40:12.254Z,1.00
2019-01-29T04:42:40.192Z,1.00
2019-01-29T04:45:09.123Z,1.00
2019-01-29T04:47:37.082Z,0.90
2019-01-29T04:50:05.785Z,0.80
2019-01-29T04:52:33.737Z,0.80
2019-01-29T04:55:01.945Z,0.60
2019-01-29T04:57:30.122Z,0.50
2019-01-29T04:59:58.009Z,0.50
2019-01-29T05:02:25.888Z,0.40
2019-01-29T05:04:54.169Z,0.50
2019-01-29T05:07:22.334Z,0.40
2019-01-29T05:09:50.218Z,0.50
2019-01-29T05:12:18.381Z,0.50
2019-01-29T05:14:46.772Z,0.60
2019-01-29T05:17:14.632Z,0.60
2019-01-29T05:19:42.785Z,0.60
2019-01-29T05:22:10.725Z,0.50
2019-01-29T05:24:39.084Z,0.40
2019-01-29T05:27:07.072Z,0.40
2019-01-29T05:29:35.178Z,0.50
2019-01-29T05:32:03.125Z,0.60
2019-01-29T05:34:30.999Z,0.60
2019-01-29T05:36:58.966Z,0.60
2019-01-29T05:39:26.921Z,0.60
2019-01-29T05:41:54.804Z,0.70
2019-01-29T05:44:22.746Z,0.80
2019-01-29T05:46:50.695Z,0.80
2019-01-29T05:49:18.581Z,0.90
2019-01-29T05:51:46.486Z,1.00
2019-01-29T05:54:16.332Z,1.10
2019-01-29T05:56:44.106Z,1.10
2019-01-29T05:59:12.001Z,1.10
2019-01-29T06:01:39.954Z,1.10
2019-01-29T06:04:07.953Z,1.20
2019-01-29T06:06:35.848Z,1.20
2019-01-29T06:09:06.054Z,1.20
2019-01-29T06:11:33.980Z,1.20
2019-01-29T06:14:01.836Z,1.20
2019-01-29T06:16:29.719Z,1.10
2019-01-29T06:18:57.892Z,1.10
2019-01-29T06:21:26.246Z,1.10
2019-01-29T06:23:54.121Z,1.10
2019-01-29T06:26:22.113Z,1.10
2019-01-29T06:28:50.050Z,1.00
2019-01-29T06:31:20.464Z,0.90
2019-01-29T06:33:48.445Z,0.90
2019-01-29T06:36:16.343Z,0.70
2019-01-29T06:38:44.510Z,0.60
2019-01-29T06:41:12.402Z,0.60
2019-01-29T06:43:40.302Z,0.60
2019-01-29T06:46:08.532Z,0.50
2019-01-29T06:48:36.527Z,0.50
2019-01-29T06:51:04.465Z,0.60
2019-01-29T06:53:32.697Z,0.50
2019-01-29T06:56:00.650Z,0.50
2019-01-29T06:58:28.539Z,0.50
2019-01-29T07:00:56.754Z,0.40
2019-01-29T07:03:24.660Z,0.30
2019-01-29T07:05:52.644Z,0.20
2019-01-29T07:08:20.520Z,0.10
2019-01-29T07:10:48.472Z,0.10
2019-01-29T07:13:16.343Z,0.10
2019-01-29T07:16:10.099Z,0.10
2019-01-29T07:18:56.355Z,0.10
2019-01-29T07:21:24.406Z,0.10
2019-01-29T07:23:52.624Z,0.10
2019-01-29T07:26:20.592Z,0.10
2019-01-29T07:28:48.480Z,0.20
2019-01-29T07:31:17.992Z,0.30
2019-01-29T07:33:45.854Z,0.40
2019-01-29T07:36:13.732Z,0.60
2019-01-29T07:38:41.604Z,0.70
2019-01-29T07:41:09.546Z,0.70
2019-01-29T07:43:37.592Z,0.80
2019-01-29T07:46:05.745Z,0.90
2019-01-29T07:48:33.703Z,1.00
2019-01-29T07:51:01.644Z,1.00
2019-01-29T07:53:29.687Z,1.10
2019-01-29T07:55:57.627Z,1.10
2019-01-29T07:58:25.820Z,1.20
2019-01-29T08:00:53.940Z,1.20
2019-01-29T08:03:21.821Z,1.20
2019-01-29T08:05:50.026Z,1.20
2019-01-29T08:08:17.911Z,1.20
2019-01-29T08:10:45.847Z,1.20
2019-01-29T08:13:13.893Z,1.20
2019-01-29T08:15:41.753Z,1.40
2019-01-29T08:18:10.204Z,1.50
2019-01-29T08:20:38.244Z,1.60
2019-01-29T08:23:06.194Z,1.80
2019-01-29T08:25:34.137Z,1.90
2019-01-29T08:28:02.009Z,2.00
2019-01-29T08:30:29.936Z,2.10
2019-01-29T08:32:58.156Z,2.20
2019-01-29T08:35:26.146Z,2.30
2019-01-29T08:37:54.024Z,2.30
2019-01-29T08:40:22.129Z,2.30
2019-01-29T08:42:50.084Z,2.30
2019-01-29T08:45:18.061Z,2.30
2019-01-29T08:47:46.121Z,2.30
2019-01-29T08:50:15.368Z,2.30
2019-01-29T08:52:43.250Z,2.30
2019-01-29T08:55:11.450Z,2.30
2019-01-29T08:57:39.605Z,2.30
2019-01-29T09:00:08.025Z,2.30
2019-01-29T09:02:35.899Z,2.30
2019-01-29T09:05:04.404Z,2.30
2019-01-29T09:07:32.364Z,2.30
2019-01-29T09:10:00.367Z,2.40
2019-01-29T09:12:28.272Z,2.40
2019-01-29T09:14:56.141Z,2.40
2019-01-29T09:17:24.005Z,2.40
2019-01-29T09:19:51.960Z,2.50
2019-01-29T09:22:19.828Z,2.60
2019-01-29T09:24:47.708Z,2.60
2019-01-29T09:27:15.656Z,2.70
2019-01-29T09:29:43.532Z,2.70
2019-01-29T09:32:11.473Z,2.80
2019-01-29T09:34:39.365Z,2.80
2019-01-29T09:37:07.246Z,2.90
2019-01-29T09:39:35.194Z,3.00
2019-01-29T09:42:03.357Z,3.10
2019-01-29T09:44:31.328Z,3.20
2019-01-29T09:46:59.549Z,3.30
2019-01-29T09:49:27.441Z,3.40
2019-01-29T09:51:55.383Z,3.60
2019-01-29T09:54:23.680Z,3.70
2019-01-29T09:56:51.621Z,3.80
2019-01-29T09:59:21.380Z,3.90
2019-01-29T10:01:49.353Z,4.00
2019-01-29T10:04:17.261Z,4.20
2019-01-29T10:06:45.254Z,4.40
2019-01-29T10:09:13.172Z,4.50
2019-01-29T10:11:41.080Z,4.60
2019-01-29T10:14:09.344Z,4.80
2019-01-29T10:16:37.220Z,4.90
2019-01-29T10:19:05.178Z,5.00
2019-01-29T10:21:33.084Z,5.10
2019-01-29T10:24:01.325Z,5.20
2019-01-29T10:26:29.204Z,5.30
2019-01-29T10:28:57.091Z,5.40
2019-01-29T10:31:24.959Z,5.50
2019-01-29T10:33:52.870Z,5.60
2019-01-29T10:36:21.060Z,5.80
2019-01-29T10:38:49.282Z,5.90
2019-01-29T10:41:17.261Z,6.00
2019-01-29T10:43:45.176Z,6.00
2019-01-29T10:46:13.116Z,5.90
2019-01-29T10:48:41.697Z,5.80
2019-01-29T10:51:09.564Z,5.70
2019-01-29T10:53:37.692Z,5.70
2019-01-29T10:56:05.649Z,5.70
2019-01-29T10:58:33.545Z,5.60
2019-01-29T11:01:01.481Z,5.50
2019-01-29T11:03:29.432Z,5.50
2019-01-29T11:05:57.412Z,5.50
2019-01-29T11:08:25.706Z,5.60
2019-01-29T11:10:53.841Z,5.70
2019-01-29T11:13:21.700Z,5.70
2019-01-29T11:15:49.660Z,5.80
2019-01-29T11:18:17.604Z,5.80
2019-01-29T11:20:46.320Z,5.90
2019-01-29T11:23:14.289Z,5.80
2019-01-29T11:25:42.353Z,5.80
2019-01-29T11:28:10.315Z,5.80
2019-01-29T11:30:38.289Z,5.90
2019-01-29T11:33:06.672Z,6.00
2019-01-29T11:35:34.646Z,6.10
2019-01-29T11:38:02.797Z,6.10
2019-01-29T11:40:31.128Z,6.20
2019-01-29T11:42:59.387Z,6.10
2019-01-29T11:45:28.595Z,6.10
2019-01-29T11:47:56.566Z,6.10
2019-01-29T11:50:24.819Z,6.20
2019-01-29T11:52:52.760Z,6.20
2019-01-29T11:55:20.732Z,6.10
2019-01-29T11:57:48.610Z,6.10
2019-01-29T12:00:20.653Z,6.10
2019-01-29T12:02:48.540Z,6.10
2019-01-29T12:05:16.509Z,6.10
2019-01-29T12:07:45.049Z,6.20
2019-01-29T12:10:13.257Z,6.20
2019-01-29T12:12:41.193Z,6.30
2019-01-29T12:15:09.753Z,6.30
2019-01-29T12:17:37.634Z,6.50
2019-01-29T12:20:06.169Z,6.70
2019-01-29T12:22:34.596Z,6.90
2019-01-29T12:25:02.480Z,7.10
2019-01-29T12:27:30.761Z,7.20
2019-01-29T12:29:58.832Z,7.30
2019-01-29T12:32:27.000Z,7.40
2019-01-29T12:34:54.897Z,7.30
2019-01-29T12:37:22.762Z,7.30
2019-01-29T12:39:50.651Z,7.50
2019-01-29T12:42:18.648Z,7.90
2019-01-29T12:44:46.569Z,8.10
2019-01-29T12:47:14.529Z,8.10
2019-01-29T12:49:42.700Z,8.00
2019-01-29T12:52:29.761Z,7.70
2019-01-29T12:54:57.688Z,7.40
2019-01-29T12:57:25.636Z,7.60
2019-01-29T12:59:53.603Z,7.40
2019-01-29T13:02:21.540Z,7.20
2019-01-29T13:04:49.458Z,7.00
2019-01-29T13:07:17.333Z,6.90
2019-01-29T13:09:45.220Z,6.80
2019-01-29T13:12:13.103Z,6.70
2019-01-29T13:14:41.082Z,6.50
2019-01-29T13:17:09.261Z,6.40
2019-01-29T13:19:37.244Z,6.30
2019-01-29T13:22:05.437Z,6.10
2019-01-29T13:24:33.341Z,6.00
2019-01-29T13:27:01.296Z,5.90
2019-01-29T13:29:29.151Z,5.80
2019-01-29T13:31:57.060Z,5.70
2019-01-29T13:34:24.940Z,5.60
2019-01-29T13:36:52.913Z,5.50
2019-01-29T13:39:20.784Z,5.50
2019-01-29T13:41:48.684Z,5.60
2019-01-29T13:44:16.588Z,5.80
2019-01-29T13:46:44.486Z,5.90
2019-01-29T13:49:12.620Z,6.00
2019-01-29T13:51:40.589Z,6.00
2019-01-29T13:54:08.490Z,6.00
2019-01-29T13:56:38.932Z,6.10
2019-01-29T13:59:06.159Z,6.20
2019-01-29T14:01:34.125Z,6.30
2019-01-29T14:04:06.204Z,6.30
2019-01-29T14:06:31.632Z,6.40
2019-01-29T14:08:59.744Z,6.60
2019-01-29T14:11:27.719Z,6.90
2019-01-29T14:13:55.623Z,7.10
2019-01-29T14:16:23.564Z,7.20
2019-01-29T14:18:51.429Z,7.20
2019-01-29T14:21:19.342Z,7.10
2019-01-29T14:23:48.020Z,6.90
2019-01-29T14:26:15.916Z,6.90
2019-01-29T14:28:43.800Z,6.80
2019-01-29T14:31:11.792Z,6.70
2019-01-29T14:33:39.657Z,6.50
2019-01-29T14:36:16.380Z,6.30
2019-01-29T14:38:46.105Z,6.20
2019-01-29T14:41:14.521Z,6.10
2019-01-29T14:43:46.577Z,6.10
2019-01-29T14:46:14.577Z,6.20
2019-01-29T14:48:42.459Z,6.10
2019-01-29T14:51:10.420Z,6.10
2019-01-29T14:53:38.461Z,5.90
2019-01-29T14:56:06.464Z,5.70
2019-01-29T14:58:34.340Z,5.50
2019-01-29T15:01:02.606Z,5.30
2019-01-29T15:03:30.559Z,5.00
2019-01-29T15:05:58.445Z,4.80
2019-01-29T15:08:26.313Z,4.60
2019-01-29T15:10:54.282Z,4.50
2019-01-29T15:13:22.181Z,4.30
2019-01-29T15:15:53.277Z,4.20
2019-01-29T15:18:24.797Z,4.20
2019-01-29T15:20:52.931Z,4.20
2019-01-29T15:23:20.790Z,4.20
2019-01-29T15:25:48.744Z,4.20
2019-01-29T15:28:16.644Z,4.10
2019-01-29T15:30:44.540Z,4.20
2019-01-29T15:33:12.513Z,4.10
2019-01-29T15:35:40.396Z,4.10
2019-01-29T15:38:08.597Z,4.10
2019-01-29T15:40:36.560Z,4.00
2019-01-29T15:43:04.652Z,3.90
2019-01-29T15:45:32.634Z,3.80
2019-01-29T15:48:00.501Z,3.80
2019-01-29T15:50:28.639Z,3.70
2019-01-29T15:52:56.516Z,3.50
2019-01-29T15:55:24.448Z,3.30
2019-01-29T15:57:52.677Z,3.10
2019-01-29T16:00:21.870Z,3.00
2019-01-29T16:02:49.834Z,2.80
2019-01-29T16:05:19.609Z,2.60
2019-01-29T16:07:47.560Z,2.50
2019-01-29T16:10:16.928Z,2.30
2019-01-29T16:12:44.918Z,2.10
2019-01-29T16:15:13.564Z,1.90
2019-01-29T16:17:41.513Z,1.70
2019-01-29T16:20:10.568Z,1.60
2019-01-29T16:22:38.506Z,1.40
2019-01-29T16:25:07.628Z,1.30
2019-01-29T16:27:35.496Z,1.10
2019-01-29T16:30:03.611Z,1.10
2019-01-29T16:32:31.776Z,1.10
2019-01-29T16:34:59.669Z,1.00
2019-01-29T16:37:27.604Z,0.90
2019-01-29T16:39:55.524Z,0.90
2019-01-29T16:42:23.498Z,0.90
2019-01-29T16:44:51.356Z,0.90
2019-01-29T16:47:19.745Z,0.90
2019-01-29T16:49:47.665Z,0.80
2019-01-29T16:52:15.812Z,0.70
2019-01-29T16:54:43.797Z,0.60
2019-01-29T16:57:12.157Z,0.50
2019-01-29T16:59:40.048Z,0.30
2019-01-29T17:02:07.985Z,0.30
2019-01-29T17:04:35.892Z,0.10
2019-01-29T17:07:03.927Z,0.10
2019-01-29T17:09:31.789Z,0.00
2019-01-29T17:12:00.214Z,-0.10
2019-01-29T17:14:28.088Z,-0.20
2019-01-29T17:16:56.209Z,-0.20
2019-01-29T17:19:24.118Z,-0.20
2019-01-29T17:21:51.983Z,-0.30
2019-01-29T17:24:20.509Z,-0.30
2019-01-29T17:26:48.377Z,-0.30
2019-01-29T17:29:16.252Z,-0.40
2019-01-29T17:31:44.196Z,-0.30
2019-01-29T17:34:12.065Z,-0.40
2019-01-29T17:36:39.964Z,-0.30
2019-01-29T17:39:08.277Z,-0.40
2019-01-29T17:41:36.152Z,-0.50
2019-01-29T17:44:04.600Z,-0.50
2019-01-29T17:46:32.833Z,-0.60
2019-01-29T17:49:00.757Z,-0.70
2019-01-29T17:51:28.649Z,-0.80
2019-01-29T17:53:56.540Z,-0.80
2019-01-29T17:56:24.613Z,-0.80
2019-01-29T17:58:52.509Z,-0.80
2019-01-29T18:01:21.621Z,-0.70
2019-01-29T18:03:49.525Z,-0.80
2019-01-29T18:06:17.464Z,-0.80
2019-01-29T18:08:49.958Z,-0.80
2019-01-29T18:11:15.053Z,-0.90
2019-01-29T18:13:42.949Z,-0.90
2019-01-29T18:16:41.970Z,-0.90
2019-01-29T18:19:09.933Z,-1.00
2019-01-29T18:21:37.876Z,-1.00
2019-01-29T18:24:05.865Z,-1.10
2019-01-29T18:26:33.865Z,-1.10
2019-01-29T18:29:01.745Z,-1.10
2019-01-29T18:31:29.655Z,-1.10
2019-01-29T18:33:57.775Z,-1.20
2019-01-29T18:36:25.708Z,-1.30
2019-01-29T18:38:53.616Z,-1.30
2019-01-29T18:41:21.533Z,-1.40
2019-01-29T18:43:49.502Z,-1.40
2019-01-29T18:46:17.364Z,-1.50
2019-01-29T18:48:45.848Z,-1.60
2019-01-29T18:51:13.858Z,-1.70
2019-01-29T18:53:41.888Z,-1.90
2019-01-29T18:56:10.237Z,-1.90
2019-01-29T18:58:38.407Z,-2.00
2019-01-29T19:01:06.636Z,-2.00
2019-01-29T19:03:34.653Z,-2.10
2019-01-29T19:06:02.756Z,-2.20
2019-01-29T19:08:30.653Z,-2.20
2019-01-29T19:10:58.824Z,-2.20
2019-01-29T19:13:26.755Z,-2.10
2019-01-29T19:15:54.628Z,-2.00
2019-01-29T19:18:22.748Z,-2.00
2019-01-29T19:20:50.646Z,-2.00
2019-01-29T19:23:18.844Z,-2.00
2019-01-29T19:25:46.718Z,-1.90
2019-01-29T19:28:21.652Z,-1.80
2019-01-29T19:30:44.324Z,-1.70
2019-01-29T19:33:12.354Z,-1.60
2019-01-29T19:35:40.340Z,-1.50
2019-01-29T19:38:08.291Z,-1.50
2019-01-29T19:40:36.200Z,-1.30
2019-01-29T19:43:04.446Z,-1.30
2019-01-29T19:45:32.952Z,-1.40
2019-01-29T19:48:01.077Z,-1.50
2019-01-29T19:50:29.709Z,-1.50
2019-01-29T19:52:59.186Z,-1.50
2019-01-29T19:55:27.361Z,-1.50
2019-01-29T19:57:55.380Z,-1.50
2019-01-29T20:00:27.232Z,-1.60
2019-01-29T20:02:56.963Z,-1.50
2019-01-29T20:05:24.955Z,-1.50
2019-01-29T20:07:52.895Z,-1.50
2019-01-29T20:10:21.324Z,-1.40
2019-01-29T20:12:49.318Z,-1.40
2019-01-29T20:15:17.560Z,-1.30
2019-01-29T20:17:45.950Z,-1.30
2019-01-29T20:20:21.192Z,-1.20
2019-01-29T20:22:49.388Z,-1.20
2019-01-29T20:25:17.309Z,-1.20
2019-01-29T20:27:45.596Z,-1.20
2019-01-29T20:30:19.396Z,-1.10
2019-01-29T20:32:53.238Z,-1.10
2019-01-29T20:35:16.883Z,-1.10
2019-01-29T20:37:45.077Z,-1.20
2019-01-29T20:40:13.978Z,-1.20
2019-01-29T20:42:41.884Z,-1.20
2019-01-29T20:45:10.458Z,-1.30
2019-01-29T20:47:38.344Z,-1.30
2019-01-29T20:50:07.786Z,-1.40
2019-01-29T20:52:35.661Z,-1.50
2019-01-29T20:55:04.081Z,-1.50
2019-01-29T20:57:31.965Z,-1.50
2019-01-29T20:59:59.953Z,-1.60
2019-01-29T21:02:27.964Z,-1.60
2019-01-29T21:04:55.912Z,-1.60
2019-01-29T21:07:23.801Z,-1.60
2019-01-29T21:09:51.692Z,-1.50
2019-01-29T21:12:20.107Z,-1.60
2019-01-29T21:14:48.148Z,-1.60
2019-01-29T21:17:16.033Z,-1.70
2019-01-29T21:19:43.919Z,-1.80
2019-01-29T21:22:12.109Z,-1.90
2019-01-29T21:24:39.980Z,-1.90
2019-01-29T21:27:07.952Z,-2.00
2019-01-29T21:29:35.828Z,-2.10
2019-01-29T21:32:03.799Z,-2.10
2019-01-29T21:34:31.668Z,-2.20
2019-01-29T21:36:59.638Z,-2.20
2019-01-29T21:39:27.557Z,-2.30
2019-01-29T21:41:55.788Z,-2.30
2019-01-29T21:44:24.000Z,-2.30
2019-01-29T21:46:51.909Z,-2.30
2019-01-29T21:49:19.809Z,-2.40
2019-01-29T21:51:47.701Z,-2.50
2019-01-29T21:54:15.872Z,-2.60
2019-01-29T21:56:44.016Z,-2.50
2019-01-29T21:59:13.369Z,-2.50
2019-01-29T22:01:42.016Z,-2.40
2019-01-29T22:04:09.928Z,-2.40
2019-01-29T22:06:37.835Z,-2.40
2019-01-29T22:09:07.240Z,-2.40
2019-01-29T22:11:35.156Z,-2.30
2019-01-29T22:14:03.404Z,-2.20
2019-01-29T22:16:31.297Z,-2.20
2019-01-29T22:18:59.193Z,-2.10
2019-01-29T22:21:27.086Z,-2.00
2019-01-29T22:23:54.952Z,-2.00
2019-01-29T22:26:22.840Z,-1.90
2019-01-29T22:28:50.789Z,-1.90
2019-01-29T22:31:18.873Z,-1.80
2019-01-29T22:33:46.939Z,-1.70
2019-01-29T22:36:14.829Z,-1.60
2019-01-29T22:38:42.734Z,-1.60
2019-01-29T22:41:10.637Z,-1.50
2019-01-29T22:43:38.552Z,-1.30
2019-01-29T22:46:06.428Z,-1.20
2019-01-29T22:48:34.369Z,-1.20
2019-01-29T22:51:02.317Z,-1.10
2019-01-29T22:53:30.488Z,-1.10
2019-01-29T22:55:58.356Z,-1.10
2019-01-29T22:58:26.320Z,-1.20
2019-01-29T23:01:22.724Z,-1.30
2019-01-29T23:03:52.924Z,-1.40
2019-01-29T23:06:33.052Z,-1.60
2019-01-29T23:09:01.008Z,-1.80
2019-01-29T23:11:28.955Z,-1.90
2019-01-29T23:13:56.912Z,-1.80
2019-01-29T23:16:24.796Z,-1.80
2019-01-29T23:18:52.752Z,-1.80
2019-01-29T23:21:20.639Z,-1.90
2019-01-29T23:23:48.848Z,-1.90
2019-01-29T23:26:16.823Z,-2.10
2019-01-29T23:28:44.688Z,-2.10
2019-01-29T23:31:12.976Z,-2.10
2019-01-29T23:33:40.863Z,-2.10
2019-01-29T23:36:09.103Z,-2.20
2019-01-29T23:38:36.995Z,-2.30
2019-01-29T23:41:05.038Z,-2.40
2019-01-29T23:43:32.912Z,-2.50
2019-01-29T23:46:00.796Z,-2.60
2019-01-29T23:48:28.695Z,-2.70
2019-01-29T23:50:56.627Z,-2.90
2019-01-29T23:53:24.509Z,-2.90
2019-01-29T23:55:52.385Z,-3.00
2019-01-29T23:58:20.349Z,-3.00
